createdAt,value
2018-07-24T00:02:35.650Z,92.00
2018-07-24T00:05:04.771Z,91.90
2018-07-24T00:07:33.675Z,92.00
2018-07-24T00:10:03.654Z,92.00
2018-07-24T00:12:32.853Z,92.10
2018-07-24T00:15:01.843Z,92.10
2018-07-24T00:17:30.827Z,92.20
2018-07-24T00:19:59.894Z,92.20
2018-07-24T00:22:28.831Z,92.30
2018-07-24T00:24:57.830Z,92.30
2018-07-24T00:27:26.770Z,92.30
2018-07-24T00:29:55.753Z,92.40
2018-07-24T00:32:24.833Z,92.40
2018-07-24T00:34:53.810Z,92.40
2018-07-24T00:37:22.794Z,92.40
2018-07-24T00:39:51.784Z,92.40
2018-07-24T00:42:20.689Z,92.40
2018-07-24T00:44:49.614Z,92.50
2018-07-24T00:47:18.557Z,92.50
2018-07-24T00:49:47.487Z,92.50
2018-07-24T00:52:16.502Z,92.50
2018-07-24T00:54:45.554Z,92.60
2018-07-24T00:57:14.628Z,92.60
2018-07-24T00:59:43.593Z,92.40
2018-07-24T01:02:12.651Z,92.50
2018-07-24T01:04:41.854Z,92.40
2018-07-24T01:07:10.835Z,92.50
2018-07-24T01:09:39.851Z,92.50
2018-07-24T01:12:08.831Z,92.40
2018-07-24T01:14:37.752Z,92.50
2018-07-24T01:17:06.820Z,92.50
2018-07-24T01:19:35.929Z,92.60
2018-07-24T01:22:05.016Z,92.50
2018-07-24T01:24:34.051Z,92.60
2018-07-24T01:29:31.469Z,92.50
2018-07-24T01:32:00.670Z,92.50
2018-07-24T01:34:29.683Z,92.50
2018-07-24T01:36:58.667Z,92.50
2018-07-24T01:39:27.507Z,92.50
2018-07-24T01:41:56.491Z,92.50
2018-07-24T01:44:25.435Z,92.50
2018-07-24T01:46:54.495Z,92.50
2018-07-24T01:49:23.431Z,92.50
2018-07-24T01:51:52.316Z,92.60
2018-07-24T01:54:21.337Z,92.60
2018-07-24T01:56:50.341Z,92.60
2018-07-24T01:59:19.408Z,92.60
2018-07-24T02:01:48.392Z,92.50
2018-07-24T02:04:17.335Z,92.60
2018-07-24T02:06:46.331Z,92.60
2018-07-24T02:09:15.331Z,92.50
2018-07-24T02:11:44.394Z,92.50
2018-07-24T02:14:13.394Z,92.20
2018-07-24T02:16:42.736Z,92.30
2018-07-24T02:19:11.862Z,92.20
2018-07-24T02:21:40.851Z,92.20
2018-07-24T02:24:09.889Z,92.30
2018-07-24T02:29:07.397Z,92.20
2018-07-24T02:31:36.367Z,92.10
2018-07-24T02:34:05.411Z,91.90
2018-07-24T02:36:34.492Z,92.30
2018-07-24T02:39:03.515Z,91.90
2018-07-24T02:41:32.538Z,92.00
2018-07-24T02:44:02.800Z,92.00
2018-07-24T02:46:32.014Z,92.10
2018-07-24T02:49:01.013Z,91.90
2018-07-24T02:51:30.079Z,92.10
2018-07-24T02:53:59.092Z,92.20
2018-07-24T02:56:28.733Z,92.20
2018-07-24T03:01:27.271Z,92.30
2018-07-24T03:03:56.365Z,92.30
2018-07-24T03:06:25.571Z,92.40
2018-07-24T03:08:54.565Z,92.30
2018-07-24T03:11:23.517Z,92.50
2018-07-24T03:16:21.140Z,92.30
2018-07-24T03:18:50.063Z,92.50
2018-07-24T03:21:19.036Z,92.20
2018-07-24T03:23:48.228Z,92.20
2018-07-24T03:26:17.421Z,92.30
2018-07-24T03:28:46.449Z,92.30
2018-07-24T03:31:15.412Z,92.40
2018-07-24T03:33:44.411Z,92.30
2018-07-24T03:36:13.392Z,92.30
2018-07-24T03:38:42.233Z,92.30
2018-07-24T03:41:11.211Z,92.20
2018-07-24T03:43:40.191Z,92.30
2018-07-24T03:46:09.182Z,92.20
2018-07-24T03:48:38.211Z,92.20
2018-07-24T03:51:07.215Z,92.20
2018-07-24T03:56:04.675Z,92.30
2018-07-24T03:58:33.671Z,92.20
2018-07-24T04:03:32.157Z,92.20
2018-07-24T04:06:01.097Z,92.20
2018-07-24T04:08:30.136Z,92.20
2018-07-24T04:10:59.075Z,92.10
2018-07-24T04:13:28.169Z,92.30
2018-07-24T04:15:57.155Z,92.30
2018-07-24T04:18:26.147Z,92.50
2018-07-24T04:20:55.158Z,92.40
2018-07-24T04:23:24.071Z,92.50
2018-07-24T04:25:52.979Z,92.10
2018-07-24T04:28:21.939Z,92.20
2018-07-24T04:30:51.048Z,92.00
2018-07-24T04:33:20.013Z,91.80
2018-07-24T04:35:49.054Z,92.00
2018-07-24T04:38:18.034Z,91.80
2018-07-24T04:40:47.031Z,91.70
2018-07-24T04:43:16.877Z,91.50
2018-07-24T04:45:45.804Z,91.20
2018-07-24T04:48:14.833Z,91.30
2018-07-24T04:50:45.135Z,91.30
2018-07-24T04:53:14.094Z,91.40
2018-07-24T04:58:11.613Z,91.00
2018-07-24T05:00:40.649Z,90.90
2018-07-24T05:03:09.620Z,90.80
2018-07-24T05:05:38.635Z,90.70
2018-07-24T05:08:07.793Z,90.70
2018-07-24T05:10:36.787Z,90.60
2018-07-24T05:13:05.770Z,90.70
2018-07-24T05:15:34.793Z,90.90
2018-07-24T05:18:03.720Z,90.80
2018-07-24T05:20:32.648Z,90.80
2018-07-24T05:23:01.714Z,90.90
2018-07-24T05:25:30.670Z,90.60
2018-07-24T05:27:59.648Z,90.70
2018-07-24T05:30:28.611Z,90.80
2018-07-24T05:32:57.572Z,90.90
2018-07-24T05:40:23.631Z,90.30
2018-07-24T05:42:52.851Z,89.80
2018-07-24T05:45:22.014Z,90.00
2018-07-24T05:47:51.184Z,88.40
2018-07-24T05:50:20.076Z,88.10
2018-07-24T05:52:49.130Z,86.50
2018-07-24T05:55:18.116Z,87.50
2018-07-24T05:57:47.067Z,86.70
2018-07-24T06:00:16.050Z,86.70
2018-07-24T06:02:45.113Z,86.60
2018-07-24T06:05:14.128Z,86.40
2018-07-24T06:07:43.132Z,86.80
2018-07-24T06:10:11.785Z,86.50
2018-07-24T06:12:40.739Z,86.90
2018-07-24T06:15:10.096Z,86.30
2018-07-24T06:17:39.050Z,84.70
2018-07-24T06:22:37.217Z,80.90
2018-07-24T06:25:06.209Z,78.90
2018-07-24T06:27:35.259Z,78.50
2018-07-24T06:30:05.455Z,78.40
2018-07-24T06:32:34.395Z,77.20
2018-07-24T06:35:03.456Z,75.30
2018-07-24T06:37:32.564Z,74.80
2018-07-24T06:40:01.642Z,74.20
2018-07-24T06:42:30.633Z,74.10
2018-07-24T06:45:00.730Z,73.10
2018-07-24T06:47:29.711Z,72.50
2018-07-24T06:49:58.693Z,70.70
2018-07-24T06:52:27.683Z,70.00
2018-07-24T06:54:56.730Z,69.50
2018-07-24T06:57:25.670Z,68.20
2018-07-24T06:59:54.690Z,68.90
2018-07-24T07:02:23.813Z,67.80
2018-07-24T07:04:52.839Z,68.20
2018-07-24T07:07:21.895Z,66.10
2018-07-24T07:09:50.931Z,66.90
2018-07-24T07:12:19.938Z,67.10
2018-07-24T07:14:48.993Z,65.90
2018-07-24T07:17:18.072Z,64.00
2018-07-24T07:19:47.013Z,64.70
2018-07-24T07:22:16.134Z,63.50
2018-07-24T07:24:45.211Z,64.10
2018-07-24T07:27:14.301Z,61.00
2018-07-24T07:29:43.378Z,63.50
2018-07-24T07:32:12.385Z,63.40
2018-07-24T07:34:42.873Z,63.90
2018-07-24T07:37:12.029Z,63.20
2018-07-24T07:39:41.119Z,62.90
2018-07-24T07:42:10.293Z,64.00
2018-07-24T07:44:39.275Z,64.80
2018-07-24T07:47:08.371Z,61.70
2018-07-24T07:49:37.389Z,59.90
2018-07-24T07:52:06.490Z,59.80
2018-07-24T07:57:03.951Z,58.00
2018-07-24T07:59:32.978Z,57.40
2018-07-24T08:02:02.034Z,57.20
2018-07-24T08:04:31.102Z,56.40
2018-07-24T08:07:00.099Z,55.90
2018-07-24T08:09:29.110Z,56.00
2018-07-24T08:11:58.155Z,55.90
2018-07-24T08:14:27.304Z,55.40
2018-07-24T08:16:56.510Z,55.10
2018-07-24T08:19:25.626Z,54.40
2018-07-24T08:21:54.582Z,54.10
2018-07-24T08:24:23.611Z,52.70
2018-07-24T08:26:52.708Z,52.70
2018-07-24T08:29:22.032Z,51.40
2018-07-24T08:31:51.155Z,52.50
2018-07-24T08:34:20.312Z,50.30
2018-07-24T08:36:49.391Z,48.80
2018-07-24T08:39:18.514Z,48.80
2018-07-24T08:41:47.517Z,51.60
2018-07-24T08:44:16.590Z,52.50
2018-07-24T08:46:45.610Z,54.20
2018-07-24T08:49:14.834Z,53.50
2018-07-24T08:51:43.830Z,49.70
2018-07-24T08:54:13.023Z,50.90
2018-07-24T08:56:41.991Z,50.80
2018-07-24T08:59:11.134Z,49.30
2018-07-24T09:01:40.143Z,50.40
2018-07-24T09:04:09.214Z,48.50
2018-07-24T09:06:38.302Z,47.20
2018-07-24T09:09:09.915Z,48.40
2018-07-24T09:11:38.991Z,49.50
2018-07-24T09:14:08.071Z,49.70
2018-07-24T09:16:37.555Z,48.20
2018-07-24T09:19:06.576Z,49.00
2018-07-24T09:21:35.591Z,47.20
2018-07-24T09:24:04.588Z,45.60
2018-07-24T09:26:33.678Z,43.40
2018-07-24T09:29:02.719Z,44.80
2018-07-24T09:31:31.751Z,43.70
2018-07-24T09:36:29.363Z,45.30
2018-07-24T09:38:58.385Z,44.60
2018-07-24T09:41:27.490Z,44.40
2018-07-24T09:43:56.618Z,44.50
2018-07-24T09:46:25.605Z,44.20
2018-07-24T09:48:54.611Z,42.90
2018-07-24T09:51:23.870Z,46.00
2018-07-24T09:53:52.952Z,43.50
2018-07-24T09:56:22.147Z,43.50
2018-07-24T09:58:51.214Z,43.00
2018-07-24T10:03:54.071Z,42.30
2018-07-24T10:06:23.151Z,40.90
2018-07-24T10:08:52.188Z,44.80
2018-07-24T10:11:21.169Z,42.90
2018-07-24T10:13:50.145Z,43.20
2018-07-24T10:16:19.250Z,39.00
2018-07-24T10:18:48.280Z,41.40
2018-07-24T10:21:17.387Z,38.50
2018-07-24T10:23:46.431Z,40.80
2018-07-24T10:26:15.349Z,38.30
2018-07-24T10:28:44.427Z,38.50
2018-07-24T10:31:13.539Z,39.40
2018-07-24T10:33:42.727Z,42.00
2018-07-24T10:36:11.797Z,40.60
2018-07-24T10:38:40.818Z,39.80
2018-07-24T10:41:09.816Z,40.20
2018-07-24T10:43:39.002Z,40.10
2018-07-24T10:46:08.081Z,39.00
2018-07-24T10:48:37.208Z,37.30
2018-07-24T10:51:06.123Z,36.50
2018-07-24T10:53:35.150Z,37.70
2018-07-24T10:56:04.209Z,38.60
2018-07-24T11:01:01.875Z,36.70
2018-07-24T11:03:30.858Z,36.40
2018-07-24T11:05:59.915Z,36.30
2018-07-24T11:08:28.937Z,35.50
2018-07-24T11:10:57.960Z,38.30
2018-07-24T11:13:26.985Z,39.10
2018-07-24T11:15:56.130Z,35.40
2018-07-24T11:18:25.152Z,35.30
2018-07-24T11:20:54.198Z,35.60
2018-07-24T11:23:23.180Z,38.20
2018-07-24T11:25:52.178Z,37.60
2018-07-24T11:28:21.262Z,39.60
2018-07-24T11:30:50.348Z,39.00
2018-07-24T11:33:19.557Z,40.20
2018-07-24T11:38:17.212Z,38.10
2018-07-24T11:40:46.196Z,40.10
2018-07-24T11:43:15.181Z,40.80
2018-07-24T11:45:44.251Z,40.90
2018-07-24T11:48:13.317Z,41.00
2018-07-24T11:50:42.834Z,39.80
2018-07-24T11:53:11.916Z,37.80
2018-07-24T11:55:40.914Z,38.20
2018-07-24T11:58:09.992Z,37.20
2018-07-24T12:00:39.020Z,39.20
2018-07-24T12:03:08.139Z,38.30
2018-07-24T12:05:37.214Z,39.10
2018-07-24T12:08:06.345Z,38.10
2018-07-24T12:10:35.331Z,36.80
2018-07-24T12:13:04.472Z,35.30
2018-07-24T12:15:33.482Z,34.70
2018-07-24T12:18:02.473Z,35.00
2018-07-24T12:20:31.571Z,35.40
2018-07-24T12:23:00.656Z,35.90
2018-07-24T12:25:30.032Z,34.60
2018-07-24T12:27:59.075Z,34.80
2018-07-24T12:30:28.071Z,35.20
2018-07-24T12:32:57.067Z,35.00
2018-07-24T12:35:26.138Z,36.30
2018-07-24T12:37:55.088Z,35.30
2018-07-24T12:40:24.259Z,35.50
2018-07-24T12:42:53.642Z,34.80
2018-07-24T12:45:22.621Z,34.00
2018-07-24T12:47:51.696Z,33.60
2018-07-24T12:50:20.802Z,32.60
2018-07-24T12:52:50.783Z,33.20
2018-07-24T12:55:19.806Z,32.40
2018-07-24T12:57:48.897Z,32.00
2018-07-24T13:00:18.014Z,32.10
2018-07-24T13:02:47.046Z,32.50
2018-07-24T13:05:16.281Z,30.40
2018-07-24T13:07:45.411Z,31.40
2018-07-24T13:10:20.810Z,32.50
2018-07-24T13:12:49.861Z,32.20
2018-07-24T13:15:18.875Z,33.50
2018-07-24T13:17:47.883Z,32.10
2018-07-24T13:20:17.038Z,32.80
2018-07-24T13:22:46.218Z,30.70
2018-07-24T13:25:15.326Z,31.50
2018-07-24T13:27:44.383Z,27.70
2018-07-24T13:30:13.458Z,30.90
2018-07-24T13:32:42.647Z,29.70
2018-07-24T13:35:11.802Z,28.20
2018-07-24T13:37:40.883Z,29.10
2018-07-24T13:40:09.860Z,27.70
2018-07-24T13:42:38.901Z,26.60
2018-07-24T13:45:08.012Z,27.20
2018-07-24T13:47:37.046Z,27.30
2018-07-24T13:50:06.211Z,26.60
2018-07-24T13:52:35.263Z,26.80
2018-07-24T13:55:04.387Z,25.90
2018-07-24T13:57:33.501Z,25.90
2018-07-24T14:00:02.448Z,24.50
2018-07-24T14:02:31.593Z,24.90
2018-07-24T14:05:00.542Z,24.80
2018-07-24T14:07:30.412Z,25.30
2018-07-24T14:09:59.508Z,24.30
2018-07-24T14:12:28.606Z,25.60
2018-07-24T14:14:57.618Z,24.50
2018-07-24T14:17:26.763Z,25.90
2018-07-24T14:19:55.895Z,25.50
2018-07-24T14:22:25.066Z,25.10
2018-07-24T14:24:54.105Z,26.30
2018-07-24T14:27:23.149Z,23.00
2018-07-24T14:29:52.245Z,23.30
2018-07-24T14:32:22.181Z,24.60
2018-07-24T14:34:51.246Z,25.80
2018-07-24T14:37:20.338Z,26.30
2018-07-24T14:39:49.360Z,26.30
2018-07-24T14:42:18.460Z,25.10
2018-07-24T14:44:47.515Z,25.40
2018-07-24T14:47:16.559Z,25.30
2018-07-24T14:49:45.552Z,24.80
2018-07-24T14:52:14.565Z,25.80
2018-07-24T14:54:43.668Z,25.70
2018-07-24T14:57:12.622Z,22.70
2018-07-24T14:59:41.545Z,24.50
2018-07-24T15:02:10.671Z,23.80
2018-07-24T15:04:39.688Z,23.90
2018-07-24T15:07:08.646Z,23.80
2018-07-24T15:09:37.635Z,23.80
2018-07-24T15:12:06.947Z,23.50
2018-07-24T15:14:35.949Z,24.30
2018-07-24T15:17:04.692Z,22.70
2018-07-24T15:19:33.375Z,22.80
2018-07-24T15:22:02.009Z,22.70
2018-07-24T15:24:33.805Z,22.60
2018-07-24T15:27:02.556Z,23.70
2018-07-24T15:29:31.221Z,23.10
2018-07-24T15:31:59.893Z,22.30
2018-07-24T15:34:28.703Z,22.50
2018-07-24T15:36:57.332Z,24.10
2018-07-24T15:39:25.958Z,22.40
2018-07-24T15:41:54.707Z,21.80
2018-07-24T15:44:23.459Z,22.30
2018-07-24T15:49:20.477Z,23.60
2018-07-24T15:51:49.704Z,23.10
2018-07-24T15:54:18.822Z,24.60
2018-07-24T15:59:27.873Z,24.70
2018-07-24T16:01:56.475Z,23.50
2018-07-24T16:04:26.696Z,24.80
2018-07-24T16:06:55.690Z,25.10
2018-07-24T16:09:24.496Z,25.50
2018-07-24T16:11:53.700Z,25.40
2018-07-24T16:14:29.335Z,25.90
2018-07-24T16:16:58.972Z,26.30
2018-07-24T16:19:28.284Z,26.30
2018-07-24T16:21:57.406Z,25.90
2018-07-24T16:24:26.592Z,27.20
2018-07-24T16:26:55.766Z,27.00
2018-07-24T16:29:25.035Z,27.50
2018-07-24T16:31:54.107Z,28.10
2018-07-24T16:36:51.983Z,31.90
2018-07-24T16:39:21.169Z,35.40
2018-07-24T16:41:50.265Z,37.50
2018-07-24T16:44:19.532Z,39.60
2018-07-24T16:46:48.699Z,41.80
2018-07-24T16:49:17.891Z,42.90
2018-07-24T16:51:47.035Z,44.80
2018-07-24T16:54:16.232Z,46.00
2018-07-24T16:56:45.475Z,47.50
2018-07-24T16:59:15.300Z,47.90
2018-07-24T17:01:44.600Z,48.70
2018-07-24T17:04:13.751Z,49.40
2018-07-24T17:06:42.986Z,50.30
2018-07-24T17:09:13.072Z,50.60
2018-07-24T17:11:42.363Z,51.80
2018-07-24T17:14:11.612Z,52.70
2018-07-24T17:16:40.760Z,54.30
2018-07-24T17:19:10.059Z,55.10
2018-07-24T17:21:39.306Z,56.40
2018-07-24T17:24:08.525Z,56.60
2018-07-24T17:26:37.747Z,57.10
2018-07-24T17:29:07.430Z,57.30
2018-07-24T17:31:36.611Z,58.10
2018-07-24T17:34:05.791Z,57.90
2018-07-24T17:36:34.907Z,58.10
2018-07-24T17:39:04.186Z,58.60
2018-07-24T17:41:33.352Z,59.20
2018-07-24T17:44:02.535Z,60.00
2018-07-24T17:46:31.751Z,60.80
2018-07-24T17:49:00.978Z,61.20
2018-07-24T17:51:30.130Z,61.90
2018-07-24T17:53:59.332Z,63.20
2018-07-24T17:56:28.514Z,63.30
2018-07-24T17:58:57.645Z,63.30
2018-07-24T18:01:26.870Z,63.40
2018-07-24T18:03:56.084Z,64.40
2018-07-24T18:06:25.230Z,64.20
2018-07-24T18:08:54.429Z,66.20
2018-07-24T18:11:23.615Z,66.30
2018-07-24T18:13:52.822Z,66.70
2018-07-24T18:16:22.032Z,66.90
2018-07-24T18:18:51.231Z,66.90
2018-07-24T18:21:20.449Z,67.30
2018-07-24T18:23:49.774Z,67.60
2018-07-24T18:26:19.048Z,68.30
2018-07-24T18:28:48.191Z,68.30
2018-07-24T18:31:17.435Z,68.70
2018-07-24T18:33:46.682Z,68.90
2018-07-24T18:36:15.888Z,69.20
2018-07-24T18:38:45.148Z,69.60
2018-07-24T18:41:14.326Z,69.60
2018-07-24T18:43:43.631Z,69.80
2018-07-24T18:46:12.779Z,70.30
2018-07-24T18:48:41.987Z,70.90
2018-07-24T18:51:11.132Z,70.60
2018-07-24T18:53:40.310Z,70.70
2018-07-24T18:56:09.531Z,71.20
2018-07-24T18:58:38.698Z,71.20
2018-07-24T19:01:07.887Z,71.70
2018-07-24T19:03:37.055Z,72.10
2018-07-24T19:06:06.223Z,72.10
2018-07-24T19:08:35.492Z,72.60
2018-07-24T19:11:04.646Z,72.90
2018-07-24T19:13:33.876Z,73.20
2018-07-24T19:16:03.036Z,73.90
2018-07-24T19:18:32.212Z,73.80
2018-07-24T19:21:01.411Z,73.90
2018-07-24T19:23:30.619Z,74.10
2018-07-24T19:25:59.751Z,74.30
2018-07-24T19:28:28.826Z,74.50
2018-07-24T19:30:58.206Z,74.50
2018-07-24T19:33:27.450Z,74.90
2018-07-24T19:35:56.663Z,74.90
2018-07-24T19:38:25.892Z,74.70
2018-07-24T19:40:55.144Z,74.90
2018-07-24T19:43:24.623Z,74.70
2018-07-24T19:45:53.752Z,75.30
2018-07-24T19:48:22.890Z,75.10
2018-07-24T19:50:52.024Z,75.10
2018-07-24T19:53:21.214Z,75.10
2018-07-24T19:55:50.317Z,75.00
2018-07-24T19:58:19.512Z,75.20
2018-07-24T20:00:48.689Z,75.40
2018-07-24T20:03:17.865Z,75.80
2018-07-24T20:05:46.951Z,75.80
2018-07-24T20:08:16.212Z,75.70
2018-07-24T20:10:45.412Z,75.70
2018-07-24T20:13:14.645Z,75.80
2018-07-24T20:15:43.795Z,76.30
2018-07-24T20:18:12.962Z,76.30
2018-07-24T20:20:42.241Z,76.30
2018-07-24T20:23:11.682Z,76.30
2018-07-24T20:25:40.769Z,76.70
2018-07-24T20:28:10.032Z,76.70
2018-07-24T20:30:39.299Z,76.90
2018-07-24T20:33:08.414Z,77.00
2018-07-24T20:35:37.557Z,77.40
2018-07-24T20:38:06.768Z,77.60
2018-07-24T20:40:35.913Z,77.40
2018-07-24T20:43:05.076Z,77.70
2018-07-24T20:45:34.329Z,77.60
2018-07-24T20:48:03.560Z,77.80
2018-07-24T20:50:32.691Z,78.10
2018-07-24T20:53:01.906Z,77.90
2018-07-24T20:55:31.105Z,77.90
2018-07-24T20:58:00.263Z,78.10
2018-07-24T21:00:29.556Z,78.70
2018-07-24T21:02:58.732Z,78.70
2018-07-24T21:05:27.952Z,79.00
2018-07-24T21:07:57.436Z,78.90
2018-07-24T21:10:26.592Z,79.60
2018-07-24T21:13:02.301Z,78.90
2018-07-24T21:15:31.404Z,78.90
2018-07-24T21:18:00.581Z,78.60
2018-07-24T21:20:29.845Z,78.50
2018-07-24T21:25:27.723Z,78.90
2018-07-24T21:27:56.962Z,78.80
2018-07-24T21:30:26.150Z,79.20
2018-07-24T21:32:55.301Z,79.30
2018-07-24T21:35:24.432Z,79.30
2018-07-24T21:37:53.592Z,78.90
2018-07-24T21:40:22.730Z,78.60
2018-07-24T21:42:51.994Z,78.50
2018-07-24T21:45:22.270Z,78.50
2018-07-24T21:47:51.391Z,78.90
2018-07-24T21:50:20.657Z,78.70
2018-07-24T21:52:49.857Z,78.50
2018-07-24T21:55:19.066Z,78.30
2018-07-24T21:57:48.150Z,78.50
2018-07-24T22:00:17.396Z,78.50
2018-07-24T22:02:46.525Z,78.40
2018-07-24T22:05:15.743Z,78.20
2018-07-24T22:07:44.897Z,78.00
2018-07-24T22:10:19.171Z,77.70
2018-07-24T22:12:48.328Z,77.30
2018-07-24T22:15:23.689Z,77.20
2018-07-24T22:17:53.219Z,77.60
2018-07-24T22:20:22.853Z,77.40
2018-07-24T22:22:52.532Z,77.30
2018-07-24T22:25:21.716Z,77.20
2018-07-24T22:27:50.912Z,77.60
2018-07-24T22:30:20.092Z,77.60
2018-07-24T22:32:49.311Z,77.80
2018-07-24T22:35:18.506Z,78.00
2018-07-24T22:37:47.754Z,78.10
2018-07-24T22:40:16.891Z,78.30
2018-07-24T22:42:46.048Z,78.70
2018-07-24T22:45:15.209Z,79.10
2018-07-24T22:47:44.415Z,79.10
2018-07-24T22:50:13.640Z,79.30
2018-07-24T22:52:42.763Z,79.80
2018-07-24T22:55:11.900Z,79.60
2018-07-24T22:57:41.069Z,80.30
2018-07-24T23:00:09.975Z,80.50
2018-07-24T23:02:39.225Z,81.00
2018-07-24T23:05:08.412Z,81.20
2018-07-24T23:07:37.672Z,81.60
2018-07-24T23:10:06.892Z,81.50
2018-07-24T23:12:36.073Z,81.90
2018-07-24T23:15:05.533Z,82.20
2018-07-24T23:17:34.721Z,82.00
2018-07-24T23:20:03.869Z,81.60
2018-07-24T23:22:33.112Z,82.40
2018-07-24T23:25:02.371Z,82.40
2018-07-24T23:27:31.523Z,82.80
2018-07-24T23:30:00.752Z,83.00
2018-07-24T23:32:29.964Z,83.20
2018-07-24T23:34:59.127Z,83.30
2018-07-24T23:37:28.214Z,83.30
2018-07-24T23:39:57.313Z,83.10
2018-07-24T23:42:26.431Z,83.10
2018-07-24T23:44:55.528Z,82.90
2018-07-24T23:47:24.737Z,82.80
2018-07-24T23:49:53.892Z,83.00
2018-07-24T23:52:23.007Z,83.20
2018-07-24T23:54:52.145Z,83.20
2018-07-24T23:57:21.233Z,83.20
2018-07-24T23:59:50.488Z,83.70
